Schneifelwetter: Wetterstation Hallschlag, 537 m . NN
Wetterdaten: Sonntag, 04.07.2010
Datum Zeit Temp. A. Feuchte A. Luftdruck Regen Wind Richtung Richtung Sonnenschein Helligkeit T Regen Taupunkt Windchill
04.07.2010 00:09 18,8 C 85 % 1020 hPa 0,0 l/m 5,9 km/h (2 Bft) N 355 0 min 0 lux 0,00 min 16,2 C 18,8 C
04.07.2010 00:24 18,6 C 85 % 1019 hPa 0,0 l/m 7,1 km/h (2 Bft) N 355 0 min 0 lux 0,00 min 16,0 C 18,3 C
04.07.2010 00:39 18,4 C 86 % 1020 hPa 0,0 l/m 0,9 km/h (0 Bft) N 350 0 min 0 lux 0,00 min 16,0 C 18,4 C
04.07.2010 00:54 18,3 C 86 % 1020 hPa 0,0 l/m 6,1 km/h (2 Bft) N 350 0 min 0 lux 0,00 min 15,9 C 18,3 C
04.07.2010 01:09 18,0 C 86 % 1020 hPa 0,0 l/m 0,6 km/h (0 Bft) N 350 0 min 0 lux 0,00 min 15,6 C 18,0 C
04.07.2010 01:24 17,7 C 87 % 1020 hPa 0,0 l/m 6,8 km/h (2 Bft) N 350 0 min 0 lux 0,00 min 15,5 C 17,5 C
04.07.2010 01:39 17,6 C 88 % 1020 hPa 0,0 l/m 1,7 km/h (1 Bft) N-NW22.5 330 0 min 0 lux 0,00 min 15,6 C 17,6 C
04.07.2010 01:54 17,4 C 88 % 1020 hPa 0,0 l/m 6,5 km/h (2 Bft) NW 315 0 min 0 lux 0,00 min 15,4 C 17,4 C
04.07.2010 02:09 17,4 C 88 % 1020 hPa 0,0 l/m 7,8 km/h (2 Bft) N-NW45 330 0 min 0 lux 0,00 min 15,4 C 16,7 C
04.07.2010 02:24 17,5 C 88 % 1020 hPa 0,0 l/m 9,6 km/h (2 Bft) NW22.5 315 0 min 0 lux 0,00 min 15,5 C 16,0 C
04.07.2010 02:39 17,6 C 88 % 1020 hPa 0,0 l/m 11,0 km/h (2 Bft) N45 350 0 min 0 lux 0,00 min 15,6 C 15,6 C
04.07.2010 02:54 17,6 C 88 % 1020 hPa 0,0 l/m 4,7 km/h (1 Bft) N 10 0 min 0 lux 0,00 min 15,6 C 17,6 C
04.07.2010 03:09 17,4 C 88 % 1020 hPa 0,0 l/m 13,1 km/h (3 Bft) N22.5 5 0 min 0 lux 0,00 min 15,4 C 14,7 C
04.07.2010 03:24 17,3 C 88 % 1020 hPa 0,0 l/m 9,7 km/h (2 Bft) N 10 0 min 0 lux 0,00 min 15,3 C 15,8 C
04.07.2010 03:39 17,2 C 88 % 1019 hPa 0,0 l/m 9,8 km/h (2 Bft) N22.5 360 0 min 0 lux 0,00 min 15,2 C 15,6 C
04.07.2010 03:54 17,2 C 88 % 1019 hPa 0,0 l/m 6,4 km/h (2 Bft) N-NO 25 0 min 0 lux 0,00 min 15,2 C 17,2 C
04.07.2010 04:09 16,9 C 87 % 1019 hPa 0,0 l/m 0,0 km/h (0 Bft) N-NO 20 0 min 0 lux 0,00 min 14,7 C 16,9 C
04.07.2010 04:24 16,5 C 88 % 1019 hPa 0,0 l/m 0,0 km/h (0 Bft) N-NO 20 0 min 0 lux 0,00 min 14,5 C 16,5 C
04.07.2010 04:39 16,5 C 89 % 1020 hPa 0,0 l/m 0,0 km/h (0 Bft) N-NO 20 0 min 0 lux 0,00 min 14,7 C 16,5 C
04.07.2010 04:54 16,7 C 89 % 1020 hPa 0,0 l/m 0,0 km/h (0 Bft) N-NO 20 0 min 0 lux 0,00 min 14,9 C 16,7 C
04.07.2010 05:09 16,8 C 89 % 1020 hPa 0,0 l/m 0,0 km/h (0 Bft) N-NO 20 0 min 41 lux 0,00 min 15,0 C 16,8 C
04.07.2010 05:24 16,9 C 89 % 1020 hPa 0,0 l/m 0,0 km/h (0 Bft) N-NO 20 0 min 165 lux 0,00 min 15,1 C 16,9 C
04.07.2010 05:39 17,0 C 90 % 1020 hPa 0,0 l/m 0,0 km/h (0 Bft) N-NO 20 0 min 365 lux 0,00 min 15,3 C 17,0 C
04.07.2010 05:54 17,2 C 90 % 1020 hPa 0,0 l/m 0,0 km/h (0 Bft) N-NO 20 0 min 728 lux 0,00 min 15,5 C 17,2 C
04.07.2010 06:08 17,2 C 90 % 1020 hPa 0,0 l/m 0,0 km/h (0 Bft) N-NO 20 0 min 1,12 klux 0,00 min 15,5 C 17,2 C
04.07.2010 06:23 17,3 C 89 % 1020 hPa 0,0 l/m 0,0 km/h (0 Bft) N-NO 20 0 min 1,90 klux 0,00 min 15,5 C 17,3 C
04.07.2010 06:38 17,5 C 89 % 1020 hPa 0,0 l/m 0,0 km/h (0 Bft) N-NO 20 0 min 2,64 klux 0,00 min 15,7 C 17,5 C
04.07.2010 06:53 17,6 C 89 % 1020 hPa 0,0 l/m 0,0 km/h (0 Bft) N-NO 20 0 min 2,12 klux 0,00 min 15,8 C 17,6 C
04.07.2010 07:08 17,7 C 88 % 1020 hPa 0,0 l/m 0,0 km/h (0 Bft) N-NO 20 0 min 5,90 klux 0,00 min 15,7 C 17,7 C
04.07.2010 07:23 18,0 C 87 % 1020 hPa 0,0 l/m 0,0 km/h (0 Bft) N-NO 20 0 min 8,59 klux 0,00 min 15,8 C 18,0 C
04.07.2010 07:38 18,1 C 86 % 1020 hPa 0,0 l/m 0,0 km/h (0 Bft) N-NO 20 0 min 8,85 klux 0,00 min 15,7 C 18,1 C
04.07.2010 07:53 18,2 C 85 % 1020 hPa 0,0 l/m 0,0 km/h (0 Bft) N-NO 20 0 min 9,1 klux 0,00 min 15,6 C 18,2 C
04.07.2010 08:08 18,3 C 85 % 1020 hPa 0,0 l/m 0,0 km/h (0 Bft) N-NO 20 0 min 9,1 klux 0,00 min 15,7 C 18,3 C
04.07.2010 08:23 18,4 C 85 % 1020 hPa 0,0 l/m 0,0 km/h (0 Bft) N-NO 20 0 min 7,96 klux 0,00 min 15,8 C 18,4 C
04.07.2010 08:38 18,4 C 84 % 1020 hPa 0,0 l/m 0,0 km/h (0 Bft) N-NO 20 0 min 5,39 klux 0,00 min 15,6 C 18,4 C
04.07.2010 08:53 18,4 C 84 % 1021 hPa 0,0 l/m 0,0 km/h (0 Bft) N-NO 20 0 min 10,3 klux 0,00 min 15,6 C 18,4 C
04.07.2010 09:15 18,8 C 84 % 1021 hPa 0,0 l/m 0,0 km/h (0 Bft) N-NO 20 0 min 17,8 klux 0,00 min 16,0 C 18,8 C
04.07.2010 09:30 19,2 C 83 % 1021 hPa 0,0 l/m 0,0 km/h (0 Bft) N-NO 20 0 min 19,4 klux 0,00 min 16,2 C 19,2 C
04.07.2010 09:45 19,7 C 81 % 1021 hPa 0,0 l/m 0,0 km/h (0 Bft) N-NO 20 0 min 37,6 klux 0,00 min 16,3 C 19,7 C
04.07.2010 10:00 21,2 C 78 % 1021 hPa 0,0 l/m 0,0 km/h (0 Bft) N-NO 20 15 min 70,0 klux 0,00 min 17,2 C 21,2 C
04.07.2010 10:14 22,6 C 74 % 1020 hPa 0,0 l/m 0,0 km/h (0 Bft) N-NO 20 0 min 44,6 klux 0,00 min 17,7 C 22,6 C
04.07.2010 10:29 22,8 C 72 % 1020 hPa 0,0 l/m 0,0 km/h (0 Bft) N-NO 20 0 min 34,2 klux 0,00 min 17,5 C 22,8 C
04.07.2010 10:45 23,0 C 71 % 1020 hPa 0,0 l/m 0,0 km/h (0 Bft) N-NO 25 16 min 76,1 klux 0,00 min 17,4 C 23,0 C
04.07.2010 11:00 23,6 C 70 % 1020 hPa 0,0 l/m 0,0 km/h (0 Bft) N-NO 25 15 min 98,8 klux 0,00 min 17,8 C 23,6 C
04.07.2010 11:15 24,8 C 65 % 1020 hPa 0,0 l/m 10,7 km/h (2 Bft) W-SW 250 15 min 88,1 klux 0,00 min 17,8 C 23,8 C
04.07.2010 11:30 25,9 C 62 % 1020 hPa 0,0 l/m 14,3 km/h (3 Bft) W45 270 15 min 89,4 klux 0,00 min 18,0 C 24,5 C
04.07.2010 11:44 26,0 C 61 % 1020 hPa 0,0 l/m 15,9 km/h (3 Bft) W 260 14 min 95,1 klux 0,00 min 17,9 C 24,4 C
04.07.2010 11:59 25,8 C 62 % 1020 hPa 0,0 l/m 15,3 km/h (3 Bft) W-SW45 255 15 min 94,6 klux 0,00 min 18,0 C 24,2 C
04.07.2010 12:15 26,2 C 58 % 1020 hPa 0,0 l/m 20,0 km/h (4 Bft) W22.5 260 16 min 99,0 klux 0,00 min 17,3 C 24,2 C
04.07.2010 12:30 25,5 C 57 % 1020 hPa 0,0 l/m 18,0 km/h (3 Bft) W-SW45 255 15 min 93,7 klux 0,00 min 16,3 C 23,5 C
04.07.2010 12:45 25,6 C 58 % 1020 hPa 0,0 l/m 20,0 km/h (4 Bft) W-SW22.5 250 15 min 102 klux 0,00 min 16,7 C 23,4 C
04.07.2010 13:00 25,3 C 58 % 1020 hPa 0,0 l/m 21,2 km/h (4 Bft) W22.5 275 15 min 99 klux 0,00 min 16,4 C 22,9 C
04.07.2010 13:15 25,1 C 58 % 1020 hPa 0,0 l/m 21,4 km/h (4 Bft) W45 260 15 min 97,3 klux 0,00 min 16,2 C 22,6 C
04.07.2010 13:29 24,8 C 60 % 1020 hPa 0,0 l/m 18,1 km/h (3 Bft) W-SW22.5 255 14 min 100 klux 0,00 min 16,5 C 22,6 C
04.07.2010 13:44 25,6 C 59 % 1020 hPa 0,0 l/m 19,1 km/h (3 Bft) W-SW45 250 15 min 97,8 klux 0,00 min 17,0 C 23,5 C
04.07.2010 14:00 26,1 C 58 % 1020 hPa 0,0 l/m 27,6 km/h (4 Bft) W-SW45 250 16 min 100 klux 0,00 min 17,2 C 23,5 C
04.07.2010 14:15 25,9 C 57 % 1020 hPa 0,0 l/m 30,2 km/h (5 Bft) W22.5 260 15 min 95,8 klux 0,00 min 16,7 C 23,0 C
04.07.2010 14:30 25,7 C 56 % 1020 hPa 0,0 l/m 26,0 km/h (4 Bft) W-SW45 250 15 min 93,2 klux 0,00 min 16,2 C 23,0 C
04.07.2010 14:45 25,1 C 56 % 1020 hPa 0,0 l/m 20,8 km/h (4 Bft) W22.5 265 15 min 91,9 klux 0,00 min 15,7 C 22,7 C
04.07.2010 14:59 25,2 C 56 % 1020 hPa 0,0 l/m 20,1 km/h (4 Bft) SW45 220 14 min 94,9 klux 0,00 min 15,8 C 22,9 C
04.07.2010 15:14 25,4 C 55 % 1020 hPa 0,0 l/m 19,7 km/h (3 Bft) W45 265 15 min 91,5 klux 0,00 min 15,7 C 23,2 C
04.07.2010 15:30 25,6 C 51 % 1019 hPa 0,0 l/m 19,8 km/h (3 Bft) W-SW45 250 16 min 92,8 klux 0,00 min 14,7 C 23,5 C
04.07.2010 15:45 26,0 C 51 % 1020 hPa 0,0 l/m 27,3 km/h (4 Bft) W-SW22.5 255 15 min 92,2 klux 0,00 min 15,1 C 23,3 C
04.07.2010 16:00 25,4 C 50 % 1020 hPa 0,0 l/m 26,4 km/h (4 Bft) W45 270 15 min 92,4 klux 0,00 min 14,2 C 22,6 C
04.07.2010 16:15 25,9 C 47 % 1019 hPa 0,0 l/m 23,9 km/h (4 Bft) W22.5 270 15 min 87,1 klux 0,00 min 13,7 C 23,5 C
04.07.2010 16:29 25,7 C 49 % 1019 hPa 0,0 l/m 24,5 km/h (4 Bft) W45 265 14 min 86,6 klux 0,00 min 14,2 C 23,1 C
04.07.2010 16:44 25,6 C 48 % 1019 hPa 0,0 l/m 21,3 km/h (4 Bft) W22.5 265 15 min 81,9 klux 0,00 min 13,8 C 23,3 C
04.07.2010 17:00 25,9 C 46 % 1019 hPa 0,0 l/m 30,5 km/h (5 Bft) W-SW45 255 16 min 83,2 klux 0,00 min 13,4 C 23,0 C
04.07.2010 17:15 25,8 C 46 % 1019 hPa 0,0 l/m 16,9 km/h (3 Bft) SW45 230 15 min 77,8 klux 0,00 min 13,3 C 24,0 C
04.07.2010 17:30 25,9 C 48 % 1019 hPa 0,0 l/m 19,6 km/h (3 Bft) W22.5 260 15 min 71,8 klux 0,00 min 14,0 C 23,9 C
04.07.2010 17:45 26,4 C 45 % 1018 hPa 0,0 l/m 23,9 km/h (4 Bft) W22.5 265 15 min 65,9 klux 0,00 min 13,5 C 24,1 C
04.07.2010 18:00 25,7 C 46 % 1019 hPa 0,0 l/m 22,9 km/h (4 Bft) W22.5 260 15 min 60,2 klux 0,00 min 13,2 C 23,3 C
04.07.2010 18:14 25,6 C 47 % 1019 hPa 0,0 l/m 20,3 km/h (4 Bft) W22.5 270 14 min 62,2 klux 0,00 min 13,4 C 23,4 C
04.07.2010 18:29 25,8 C 47 % 1018 hPa 0,0 l/m 21,5 km/h (4 Bft) W22.5 265 15 min 55,1 klux 0,00 min 13,6 C 23,6 C
04.07.2010 18:45 25,4 C 47 % 1018 hPa 0,0 l/m 26,1 km/h (4 Bft) W45 270 0 min 48,9 klux 0,00 min 13,3 C 22,6 C
04.07.2010 19:00 24,8 C 48 % 1018 hPa 0,0 l/m 19,7 km/h (3 Bft) W22.5 270 0 min 44,6 klux 0,00 min 13,0 C 22,4 C
04.07.2010 19:15 24,7 C 48 % 1018 hPa 0,0 l/m 19,5 km/h (3 Bft) NW45 305 0 min 39,4 klux 0,00 min 12,9 C 22,3 C
04.07.2010 19:30 25,1 C 46 % 1018 hPa 0,0 l/m 17,0 km/h (3 Bft) W45 275 0 min 34,1 klux 0,00 min 12,7 C 23,2 C
04.07.2010 19:45 25,2 C 46 % 1019 hPa 0,0 l/m 18,2 km/h (3 Bft) W45 280 0 min 31,0 klux 0,00 min 12,7 C 23,1 C
04.07.2010 19:59 24,4 C 47 % 1018 hPa 0,0 l/m 17,3 km/h (3 Bft) W22.5 265 0 min 28,1 klux 0,00 min 12,3 C 22,2 C
04.07.2010 20:15 23,4 C 49 % 1019 hPa 0,0 l/m 17,3 km/h (3 Bft) W-NW45 295 0 min 24,6 klux 0,00 min 12,1 C 21,0 C
04.07.2010 20:30 22,4 C 51 % 1019 hPa 0,0 l/m 15,1 km/h (3 Bft) W22.5 275 0 min 20,2 klux 0,00 min 11,8 C 20,1 C
04.07.2010 20:45 21,8 C 52 % 1019 hPa 0,0 l/m 11,6 km/h (2 Bft) W22.5 265 0 min 15,3 klux 0,00 min 11,5 C 20,2 C
04.07.2010 21:00 21,2 C 54 % 1019 hPa 0,0 l/m 10,8 km/h (2 Bft) W22.5 270 0 min 12,0 klux 0,00 min 11,5 C 19,7 C
04.07.2010 21:15 20,8 C 55 % 1019 hPa 0,0 l/m 8,2 km/h (2 Bft) W 260 0 min 4,12 klux 0,00 min 11,4 C 20,1 C
04.07.2010 21:29 19,9 C 57 % 1019 hPa 0,0 l/m 20,9 km/h (4 Bft) W22.5 275 0 min 2,66 klux 0,00 min 11,1 C 15,9 C
04.07.2010 21:44 19,3 C 57 % 1019 hPa 0,0 l/m 17,2 km/h (3 Bft) W22.5 275 0 min 1,39 klux 0,00 min 10,6 C 15,9 C
04.07.2010 22:00 18,5 C 58 % 1019 hPa 0,0 l/m 11,4 km/h (2 Bft) W 260 0 min 640 lux 0,00 min 10,1 C 16,5 C
04.07.2010 22:15 17,5 C 59 % 1019 hPa 0,0 l/m 4,8 km/h (1 Bft) W 260 0 min 173 lux 0,00 min 9,4 C 17,5 C
04.07.2010 22:30 16,5 C 61 % 1019 hPa 0,0 l/m 0,2 km/h (0 Bft) W 260 0 min 29 lux 0,00 min 9,0 C 16,5 C
04.07.2010 22:45 15,5 C 63 % 1019 hPa 0,0 l/m 0,1 km/h (0 Bft) W 260 0 min 4 lux 0,00 min 8,5 C 15,5 C
04.07.2010 23:00 14,7 C 65 % 1019 hPa 0,0 l/m 0,0 km/h (0 Bft) W 265 0 min 0 lux 0,00 min 8,2 C 14,7 C
04.07.2010 23:14 14,2 C 66 % 1019 hPa 0,0 l/m 0,0 km/h (0 Bft) W 265 0 min 0 lux 0,00 min 7,9 C 14,2 C
04.07.2010 23:29 13,6 C 67 % 1019 hPa 0,0 l/m 0,0 km/h (0 Bft) W 265 0 min 0 lux 0,00 min 7,6 C 13,6 C
04.07.2010 23:45 13,1 C 68 % 1019 hPa 0,0 l/m 0,0 km/h (0 Bft) W 265 0 min 0 lux 0,00 min 7,3 C 13,1 C
04.07.2010 23:54 12,7 C 70 % 1020 hPa 0,0 l/m 0,0 km/h (0 Bft) W 265 0 min 0 lux 0,00 min 7,4 C 12,7 C
_ Min-Zeit 23:54 17:45 17:45 - 04:09 - - - - - 23:45 23:54
Minimum _ 12,7 C 45 % 1018 hPa - 0,0 km/h (0 Bft) - - - - - 7,3 C 12,7 C
_ Max-Zeit 17:45 05:39 08:53 00:09 17:00 - - 10:45 12:45 00:09 11:30 11:30
Maximum _ 26,4 C 90 % 1021 hPa 0,0 l/m 30,5 km/h
W-SW (5 Bft)
- - 16 min 102 klux 0,00 min 18,0 C 24,5 C
Durchschnitt _ 20,9 C 69 % 1020 hPa #0,0 l/m 10,2 km/h (2 Bft) W - #8:15 h 35,5 klux #0 min. 14,5 C 19,8 C